createdAt,value
2022-11-17T00:00:42.486Z,97967.78
2022-11-17T00:03:16.222Z,97953.41
2022-11-17T00:05:44.643Z,97943.53
2022-11-17T00:08:11.912Z,97935.78
2022-11-17T00:10:38.964Z,97925.00
2022-11-17T00:13:24.186Z,97924.44
2022-11-17T00:15:51.305Z,97916.59
2022-11-17T00:18:36.870Z,97915.69
2022-11-17T00:21:19.735Z,97917.44
2022-11-17T00:23:47.661Z,97926.13
2022-11-17T00:26:26.553Z,97914.34
2022-11-17T00:29:03.013Z,97904.28
2022-11-17T00:31:51.569Z,97902.34
2022-11-17T00:34:21.925Z,97886.72
2022-11-17T00:36:52.283Z,97888.25
2022-11-17T00:39:22.165Z,97880.16
2022-11-17T00:41:49.623Z,97893.38
2022-11-17T00:44:16.847Z,97893.06
2022-11-17T00:46:43.806Z,97897.22
2022-11-17T00:49:11.590Z,97905.91
2022-11-17T00:51:39.058Z,97881.38
2022-11-17T00:54:07.862Z,97881.38
2022-11-17T00:56:34.834Z,97894.13
2022-11-17T00:59:01.954Z,97902.56
2022-11-17T01:01:29.969Z,97889.25
2022-11-17T01:04:05.190Z,97880.69
2022-11-17T01:06:49.651Z,97888.13
2022-11-17T01:09:21.008Z,97886.97
2022-11-17T01:11:50.424Z,97864.03
2022-11-17T01:14:25.559Z,97848.38
2022-11-17T01:16:53.330Z,97831.13
2022-11-17T01:19:21.695Z,97832.72
2022-11-17T01:21:48.741Z,97829.59
2022-11-17T01:24:17.043Z,97812.31
2022-11-17T01:26:45.686Z,97825.16
2022-11-17T01:29:17.107Z,97820.44
2022-11-17T01:31:49.074Z,97810.56
2022-11-17T01:34:16.019Z,97806.84
2022-11-17T01:37:02.881Z,97798.84
2022-11-17T01:39:31.231Z,97796.44
2022-11-17T01:42:02.649Z,97794.56
2022-11-17T01:44:41.795Z,97787.38
2022-11-17T01:47:21.055Z,97794.56
2022-11-17T01:49:51.837Z,97803.38
2022-11-17T01:52:18.906Z,97790.31
2022-11-17T01:54:48.486Z,97764.91
2022-11-17T01:57:26.377Z,97767.03
2022-11-17T02:00:06.058Z,97765.41
2022-11-17T02:02:35.659Z,97748.63
2022-11-17T02:05:18.694Z,97753.94
2022-11-17T02:07:49.374Z,97745.16
2022-11-17T02:10:16.779Z,97739.81
2022-11-17T02:12:45.008Z,97733.75
2022-11-17T02:15:12.009Z,97741.28
2022-11-17T02:17:43.997Z,97737.31
2022-11-17T02:20:23.696Z,97725.34
2022-11-17T02:23:23.323Z,97711.00
2022-11-17T02:26:15.260Z,97715.53
2022-11-17T02:28:57.065Z,97715.53
2022-11-17T02:32:02.432Z,97716.34
2022-11-17T02:34:59.318Z,97694.19
2022-11-17T02:37:59.000Z,97694.19
2022-11-17T02:40:39.968Z,97685.16
2022-11-17T02:43:32.340Z,97687.81
2022-11-17T02:46:10.739Z,97687.81
2022-11-17T02:48:44.754Z,97672.63
2022-11-17T02:51:20.577Z,97660.13
2022-11-17T02:53:50.895Z,97664.13
2022-11-17T02:56:17.857Z,97658.81
2022-11-17T02:58:46.224Z,97685.22
2022-11-17T03:01:22.292Z,97690.06
2022-11-17T03:04:21.821Z,97698.06
2022-11-17T03:07:07.409Z,97687.16
2022-11-17T03:10:12.007Z,97695.97
2022-11-17T03:13:17.943Z,97711.16
2022-11-17T03:16:12.685Z,97703.72
2022-11-17T03:18:55.846Z,97690.38
2022-11-17T03:21:36.275Z,97675.44
2022-11-17T03:24:19.534Z,97672.78
2022-11-17T03:27:00.505Z,97692.75
2022-11-17T03:29:31.708Z,97691.94
2022-11-17T03:32:03.130Z,97679.88
2022-11-17T03:34:45.657Z,97686.25
2022-11-17T03:37:15.527Z,97685.47
2022-11-17T03:39:51.782Z,97685.72
2022-11-17T03:42:27.278Z,97685.97
2022-11-17T03:45:01.318Z,97674.25
2022-11-17T03:47:30.929Z,97672.63
2022-11-17T03:50:23.711Z,97668.91
2022-11-17T03:52:51.735Z,97678.53
2022-11-17T03:55:18.693Z,97665.19
2022-11-17T03:58:09.423Z,97662.53
2022-11-17T04:00:38.745Z,97662.53
2022-11-17T04:03:06.226Z,97671.56
2022-11-17T04:05:33.182Z,97665.69
2022-11-17T04:08:00.452Z,97662.22
2022-11-17T04:10:27.626Z,97653.38
2022-11-17T04:13:13.598Z,97658.16
2022-11-17T04:15:59.187Z,97659.22
2022-11-17T04:18:27.015Z,97661.34
2022-11-17T04:20:57.008Z,97660.28
2022-11-17T04:23:25.367Z,97663.19
2022-11-17T04:26:14.221Z,97668.28
2022-11-17T04:28:48.970Z,97665.59
2022-11-17T04:31:19.892Z,97665.34
2022-11-17T04:33:47.844Z,97659.22
2022-11-17T04:36:19.170Z,97654.38
2022-11-17T04:38:52.753Z,97643.94
2022-11-17T04:41:41.330Z,97643.16
2022-11-17T04:44:10.905Z,97642.59
2022-11-17T04:46:39.993Z,97645.50
2022-11-17T04:49:08.404Z,97645.50
2022-11-17T04:51:36.513Z,97642.03
2022-11-17T04:54:05.064Z,97647.34
2022-11-17T04:56:32.116Z,97656.38
2022-11-17T04:58:59.278Z,97658.03
2022-11-17T05:01:27.767Z,97658.50
2022-11-17T05:04:03.914Z,97658.50
2022-11-17T05:06:44.150Z,97655.81
2022-11-17T05:09:14.256Z,97656.88
2022-11-17T05:12:00.981Z,97656.06
2022-11-17T05:14:29.061Z,97657.94
2022-11-17T05:17:09.513Z,97647.81
2022-11-17T05:19:46.661Z,97633.22
2022-11-17T05:22:39.478Z,97646.88
2022-11-17T05:25:07.490Z,97658.31
2022-11-17T05:27:35.070Z,97644.53
2022-11-17T05:30:06.965Z,97640.56
2022-11-17T05:32:34.636Z,97643.78
2022-11-17T05:35:01.695Z,97635.56
2022-11-17T05:37:28.656Z,97645.72
2022-11-17T05:39:55.576Z,97631.59
2022-11-17T05:42:25.116Z,97633.22
2022-11-17T05:45:14.580Z,97638.53
2022-11-17T05:47:41.698Z,97632.75
2022-11-17T05:50:09.109Z,97623.44
2022-11-17T05:52:36.051Z,97635.72
2022-11-17T05:55:03.015Z,97636.50
2022-11-17T05:57:32.409Z,97649.41
2022-11-17T06:00:04.548Z,97662.28
2022-11-17T06:02:47.315Z,97651.69
2022-11-17T06:05:19.830Z,97661.88
2022-11-17T06:07:47.997Z,97648.03
2022-11-17T06:10:15.058Z,97649.41
2022-11-17T06:12:42.004Z,97651.03
2022-11-17T06:15:09.781Z,97637.44
2022-11-17T06:17:47.940Z,97638.25
2022-11-17T06:20:26.534Z,97657.72
2022-11-17T06:22:55.656Z,97645.44
2022-11-17T06:25:22.860Z,97637.44
2022-11-17T06:27:50.900Z,97656.91
2022-11-17T06:30:18.634Z,97660.38
2022-11-17T06:32:46.484Z,97668.38
2022-11-17T06:35:16.220Z,97662.03
2022-11-17T06:37:43.604Z,97670.81
2022-11-17T06:40:13.227Z,97675.91
2022-11-17T06:42:59.150Z,97674.38
2022-11-17T06:45:26.450Z,97672.28
2022-11-17T06:47:54.034Z,97669.94
2022-11-17T06:50:22.445Z,97671.88
2022-11-17T06:52:49.395Z,97671.34
2022-11-17T06:55:16.438Z,97653.00
2022-11-17T06:57:46.520Z,97652.22
2022-11-17T07:00:16.440Z,97656.00
2022-11-17T07:02:43.469Z,97659.22
2022-11-17T07:05:10.671Z,97654.44
2022-11-17T07:07:37.709Z,97640.63
2022-11-17T07:10:05.049Z,97648.13
2022-11-17T07:12:33.462Z,97643.34
2022-11-17T07:15:00.611Z,97655.13
2022-11-17T07:17:28.971Z,97653.00
2022-11-17T07:19:56.650Z,97650.94
2022-11-17T07:22:23.596Z,97646.94
2022-11-17T07:24:50.668Z,97645.63
2022-11-17T07:27:17.625Z,97646.19
2022-11-17T07:29:44.619Z,97655.56
2022-11-17T07:32:13.943Z,97655.06
2022-11-17T07:34:41.445Z,97642.03
2022-11-17T07:37:08.474Z,97647.44
2022-11-17T07:39:35.441Z,97650.66
2022-11-17T07:42:02.479Z,97651.78
2022-11-17T07:44:29.413Z,97649.66
2022-11-17T07:46:56.561Z,97650.78
2022-11-17T07:49:23.866Z,97644.13
2022-11-17T07:51:50.861Z,97644.41
2022-11-17T07:54:17.955Z,97645.53
2022-11-17T07:56:44.909Z,97650.38
2022-11-17T07:59:14.979Z,97660.00
2022-11-17T08:01:45.490Z,97664.81
2022-11-17T08:04:12.466Z,97682.47
2022-11-17T08:06:39.392Z,97672.34
2022-11-17T08:09:07.143Z,97690.78
2022-11-17T08:11:34.330Z,97689.75
2022-11-17T08:14:01.318Z,97693.22
2022-11-17T08:16:30.843Z,97696.69
2022-11-17T08:18:58.221Z,97684.13
2022-11-17T08:21:25.683Z,97696.44
2022-11-17T08:23:54.928Z,97696.44
2022-11-17T08:26:24.907Z,97694.56
2022-11-17T08:28:57.904Z,97695.13
2022-11-17T08:31:25.326Z,97693.81
2022-11-17T08:33:52.298Z,97679.41
2022-11-17T08:36:19.285Z,97681.59
2022-11-17T08:38:46.227Z,97687.47
2022-11-17T08:41:13.280Z,97682.66
2022-11-17T08:43:40.215Z,97684.06
2022-11-17T08:46:14.153Z,97683.25
2022-11-17T08:48:41.225Z,97691.25
2022-11-17T08:51:09.481Z,97688.34
2022-11-17T08:53:36.438Z,97695.28
2022-11-17T08:56:13.363Z,97696.91
2022-11-17T08:58:45.013Z,97695.03
2022-11-17T09:01:15.767Z,97702.81
2022-11-17T09:03:45.884Z,97696.63
2022-11-17T09:06:15.244Z,97699.88
2022-11-17T09:08:46.260Z,97730.63
2022-11-17T09:11:14.925Z,97714.09
2022-11-17T09:13:42.175Z,97715.19
2022-11-17T09:16:11.385Z,97708.84
2022-11-17T09:18:39.981Z,97719.31
2022-11-17T09:21:17.861Z,97715.09
2022-11-17T09:23:44.986Z,97721.31
2022-11-17T09:26:14.637Z,97727.50
2022-11-17T09:28:45.198Z,97734.78
2022-11-17T09:31:19.571Z,97732.97
2022-11-17T09:33:47.210Z,97736.47
2022-11-17T09:36:16.614Z,97737.56
2022-11-17T09:38:44.338Z,97744.28
2022-11-17T09:41:35.374Z,97738.97
2022-11-17T09:44:23.469Z,97749.16
2022-11-17T09:47:32.930Z,97741.41
2022-11-17T09:50:31.179Z,97743.28
2022-11-17T09:53:25.955Z,97755.63
2022-11-17T09:56:07.410Z,97763.09
2022-11-17T09:59:05.039Z,97772.72
2022-11-17T10:01:32.170Z,97775.03
2022-11-17T10:04:01.259Z,97769.34
2022-11-17T10:06:31.863Z,97777.78
2022-11-17T10:09:28.123Z,97786.72
2022-11-17T10:12:14.627Z,97777.00
2022-11-17T10:14:42.098Z,97768.38
2022-11-17T10:17:10.784Z,97762.41
2022-11-17T10:19:38.649Z,97767.16
2022-11-17T10:22:05.720Z,97753.41
2022-11-17T10:24:43.199Z,97749.84
2022-11-17T10:27:32.323Z,97768.53
2022-11-17T10:30:00.197Z,97758.84
2022-11-17T10:32:30.561Z,97754.47
2022-11-17T10:35:28.959Z,97741.06
2022-11-17T10:38:20.146Z,97722.31
2022-11-17T10:40:50.737Z,97735.91
2022-11-17T10:43:28.571Z,97762.06
2022-11-17T10:46:16.954Z,97781.22
2022-11-17T10:49:04.901Z,97799.03
2022-11-17T10:51:33.774Z,97771.72
2022-11-17T10:54:15.344Z,97769.47
2022-11-17T10:57:08.728Z,97777.91
2022-11-17T10:59:56.888Z,97791.16
2022-11-17T11:02:34.436Z,97794.25
2022-11-17T11:05:18.018Z,97797.63
2022-11-17T11:07:45.544Z,97784.81
2022-11-17T11:10:27.658Z,97791.41
2022-11-17T11:13:14.808Z,97796.75
2022-11-17T11:15:42.007Z,97790.59
2022-11-17T11:18:18.243Z,97781.81
2022-11-17T11:21:17.086Z,97791.66
2022-11-17T11:24:08.832Z,97796.19
2022-11-17T11:27:37.069Z,97790.84
2022-11-17T11:30:16.079Z,97774.03
2022-11-17T11:33:01.016Z,97773.25
2022-11-17T11:35:56.230Z,97774.84
2022-11-17T11:39:00.733Z,97773.56
2022-11-17T11:42:10.297Z,97769.59
2022-11-17T11:45:04.815Z,97763.75
2022-11-17T11:47:56.556Z,97778.25
2022-11-17T11:50:28.056Z,97778.31
2022-11-17T11:53:04.403Z,97772.00
2022-11-17T11:55:35.900Z,97774.97
2022-11-17T11:58:23.777Z,97772.94
2022-11-17T12:01:05.730Z,97773.34
2022-11-17T12:03:43.708Z,97771.88
2022-11-17T12:06:42.000Z,97769.31
2022-11-17T12:09:56.439Z,97773.19
2022-11-17T12:12:33.826Z,97785.53
2022-11-17T12:15:11.278Z,97787.16
2022-11-17T12:17:53.019Z,97777.03
2022-11-17T12:20:37.949Z,97778.41
2022-11-17T12:23:35.867Z,97774.69
2022-11-17T12:26:03.311Z,97790.19
2022-11-17T12:28:41.073Z,97786.53
2022-11-17T12:31:19.112Z,97791.13
2022-11-17T12:33:51.998Z,97789.34
2022-11-17T12:36:30.788Z,97783.53
2022-11-17T12:39:09.311Z,97783.81
2022-11-17T12:41:48.560Z,97782.28
2022-11-17T12:44:37.389Z,97785.00
2022-11-17T12:47:21.466Z,97786.09
2022-11-17T12:50:20.118Z,97781.06
2022-11-17T12:53:13.578Z,97784.31
2022-11-17T12:56:35.524Z,97798.22
2022-11-17T13:00:01.194Z,97789.66
2022-11-17T13:02:54.639Z,97789.34
2022-11-17T13:05:28.121Z,97782.88
2022-11-17T13:08:13.771Z,97781.53
2022-11-17T13:10:41.672Z,97789.22
2022-11-17T13:13:21.075Z,97781.72
2022-11-17T13:15:58.694Z,97804.13
2022-11-17T13:18:39.204Z,97808.84
2022-11-17T13:21:24.877Z,97827.97
2022-11-17T13:23:53.502Z,97814.78
2022-11-17T13:26:27.155Z,97817.09
2022-11-17T13:29:12.395Z,97817.78
2022-11-17T13:31:39.806Z,97817.16
2022-11-17T13:34:16.697Z,97816.28
2022-11-17T13:36:55.482Z,97814.06
2022-11-17T13:39:27.012Z,97810.84
2022-11-17T13:41:56.245Z,97810.84
2022-11-17T13:44:28.222Z,97803.91
2022-11-17T13:46:56.045Z,97813.78
2022-11-17T13:49:39.492Z,97814.03
2022-11-17T13:52:40.478Z,97827.38
2022-11-17T13:55:10.403Z,97831.06
2022-11-17T13:57:37.607Z,97835.88
2022-11-17T14:00:05.340Z,97829.16
2022-11-17T14:02:36.652Z,97837.16
2022-11-17T14:05:13.238Z,97834.16
2022-11-17T14:07:42.123Z,97840.81
2022-11-17T14:10:21.253Z,97840.25
2022-11-17T14:12:50.775Z,97846.41
2022-11-17T14:15:26.754Z,97851.16
2022-11-17T14:17:57.925Z,97847.94
2022-11-17T14:20:24.778Z,97845.25
2022-11-17T14:23:10.542Z,97846.31
2022-11-17T14:25:46.299Z,97843.09
2022-11-17T14:28:19.152Z,97834.50
2022-11-17T14:31:04.222Z,97828.06
2022-11-17T14:33:31.218Z,97831.19
2022-11-17T14:35:59.924Z,97829.59
2022-11-17T14:38:26.900Z,97846.66
2022-11-17T14:40:54.161Z,97839.91
2022-11-17T14:43:22.395Z,97852.47
2022-11-17T14:45:50.680Z,97850.03
2022-11-17T14:48:19.625Z,97847.94
2022-11-17T14:50:47.664Z,97838.09
2022-11-17T14:53:15.017Z,97818.00
2022-11-17T14:55:41.960Z,97817.22
2022-11-17T14:58:09.832Z,97814.25
2022-11-17T15:00:37.102Z,97817.38
2022-11-17T15:03:04.638Z,97821.59
2022-11-17T15:05:31.963Z,97836.72
2022-11-17T15:07:59.041Z,97834.50
2022-11-17T15:10:26.034Z,97829.66
2022-11-17T15:12:52.996Z,97830.09
2022-11-17T15:15:19.940Z,97831.41
2022-11-17T15:17:46.898Z,97828.41
2022-11-17T15:20:14.029Z,97812.91
2022-11-17T15:22:40.958Z,97811.53
2022-11-17T15:25:08.569Z,97809.31
2022-11-17T15:27:35.488Z,97807.97
2022-11-17T15:30:02.609Z,97798.56
2022-11-17T15:32:29.746Z,97805.75
2022-11-17T15:34:56.696Z,97797.19
2022-11-17T15:37:23.677Z,97789.22
2022-11-17T15:39:50.610Z,97782.25
2022-11-17T15:42:17.716Z,97778.19
2022-11-17T15:44:44.693Z,97779.84
2022-11-17T15:47:11.612Z,97781.44
2022-11-17T15:49:38.564Z,97785.97
2022-11-17T15:52:05.518Z,97774.50
2022-11-17T15:54:32.848Z,97790.50
2022-11-17T15:57:01.364Z,97786.78
2022-11-17T15:59:28.444Z,97794.53
2022-11-17T16:01:55.961Z,97790.25
2022-11-17T16:04:22.953Z,97790.25
2022-11-17T16:06:49.972Z,97784.34
2022-11-17T16:09:17.480Z,97787.00
2022-11-17T16:11:44.807Z,97795.00
2022-11-17T16:14:11.854Z,97800.13
2022-11-17T16:16:39.605Z,97799.31
2022-11-17T16:19:07.047Z,97797.19
2022-11-17T16:21:34.142Z,97824.66
2022-11-17T16:24:02.008Z,97827.09
2022-11-17T16:26:29.975Z,97843.09
2022-11-17T16:28:59.395Z,97846.34
2022-11-17T16:31:29.890Z,97830.56
2022-11-17T16:34:10.315Z,97826.03
2022-11-17T16:36:40.242Z,97826.03
2022-11-17T16:39:13.399Z,97848.44
2022-11-17T16:41:42.825Z,97851.91
2022-11-17T16:44:13.468Z,97844.94
2022-11-17T16:46:46.792Z,97842.28
2022-11-17T16:49:17.367Z,97839.88
2022-11-17T16:51:49.610Z,97841.97
2022-11-17T16:54:17.898Z,97841.16
2022-11-17T16:56:45.113Z,97830.72
2022-11-17T16:59:12.334Z,97829.09
2022-11-17T17:01:39.679Z,97832.00
2022-11-17T17:04:10.006Z,97829.59
2022-11-17T17:06:40.856Z,97813.00
2022-11-17T17:09:10.657Z,97811.19
2022-11-17T17:11:38.328Z,97807.94
2022-11-17T17:14:09.236Z,97821.50
2022-11-17T17:16:37.175Z,97819.88
2022-11-17T17:19:07.224Z,97820.34
2022-11-17T17:21:35.150Z,97824.06
2022-11-17T17:24:02.569Z,97834.97
2022-11-17T17:26:31.605Z,97835.22
2022-11-17T17:29:00.861Z,97828.28
2022-11-17T17:31:35.666Z,97829.28
2022-11-17T17:34:04.081Z,97830.34
2022-11-17T17:36:31.159Z,97830.34
2022-11-17T17:39:01.670Z,97827.94
2022-11-17T17:41:32.561Z,97829.53
2022-11-17T17:44:05.166Z,97829.78
2022-11-17T17:46:37.916Z,97840.69
2022-11-17T17:49:05.672Z,97836.16
2022-11-17T17:51:36.038Z,97838.03
2022-11-17T17:54:03.093Z,97840.94
2022-11-17T17:56:32.574Z,97839.88
2022-11-17T17:58:59.698Z,97841.97
2022-11-17T18:01:30.214Z,97848.94
2022-11-17T18:04:04.798Z,97845.69
2022-11-17T18:06:38.268Z,97843.81
2022-11-17T18:09:07.533Z,97833.41
2022-11-17T18:11:35.591Z,97847.28
2022-11-17T18:14:03.895Z,97854.47
2022-11-17T18:16:33.617Z,97853.66
2022-11-17T18:19:05.192Z,97859.25
2022-11-17T18:21:32.841Z,97854.72
2022-11-17T18:24:01.970Z,97855.78
2022-11-17T18:26:32.757Z,97846.16
2022-11-17T18:29:04.947Z,97846.97
2022-11-17T18:31:35.296Z,97842.91
2022-11-17T18:34:12.922Z,97851.94
2022-11-17T18:36:39.920Z,97850.09
2022-11-17T18:39:06.955Z,97843.94
2022-11-17T18:41:35.188Z,97847.66
2022-11-17T18:44:02.673Z,97847.09
2022-11-17T18:46:32.455Z,97856.16
2022-11-17T18:49:00.326Z,97858.81
2022-11-17T18:51:31.318Z,97857.41
2022-11-17T18:54:01.291Z,97851.28
2022-11-17T18:56:36.123Z,97845.94
2022-11-17T18:59:12.144Z,97835.28
2022-11-17T19:01:42.164Z,97852.34
2022-11-17T19:04:12.268Z,97866.22
2022-11-17T19:06:39.256Z,97863.00
2022-11-17T19:09:06.731Z,97851.28
2022-11-17T19:11:34.550Z,97850.47
2022-11-17T19:14:02.602Z,97844.34
2022-11-17T19:16:30.040Z,97836.59
2022-11-17T19:18:57.921Z,97842.72
2022-11-17T19:21:33.416Z,97841.09
2022-11-17T19:24:04.317Z,97841.09
2022-11-17T19:26:33.467Z,97836.84
2022-11-17T19:29:12.660Z,97844.81
2022-11-17T19:31:42.895Z,97851.41
2022-11-17T19:34:09.991Z,97855.13
2022-11-17T19:36:37.389Z,97850.03
2022-11-17T19:39:04.495Z,97858.84
2022-11-17T19:41:35.311Z,97863.38
2022-11-17T19:44:05.678Z,97860.94
2022-11-17T19:46:33.436Z,97870.78
2022-11-17T19:49:00.763Z,97868.34
2022-11-17T19:51:34.617Z,97875.53
2022-11-17T19:54:04.656Z,97873.91
2022-11-17T19:56:31.788Z,97875.75
2022-11-17T19:58:59.044Z,97878.44
2022-11-17T20:01:30.602Z,97889.09
2022-11-17T20:04:02.605Z,97894.66
2022-11-17T20:06:36.884Z,97888.53
2022-11-17T20:09:12.531Z,97886.66
2022-11-17T20:11:40.853Z,97879.72
2022-11-17T20:14:08.020Z,97888.53
2022-11-17T20:16:36.677Z,97887.72
2022-11-17T20:19:04.153Z,97896.50
2022-11-17T20:21:31.388Z,97892.78
2022-11-17T20:24:00.262Z,97895.69
2022-11-17T20:26:31.913Z,97892.00
2022-11-17T20:29:00.680Z,97905.06
2022-11-17T20:31:31.694Z,97903.22
2022-11-17T20:34:00.526Z,97913.88
2022-11-17T20:36:31.688Z,97904.81
2022-11-17T20:39:06.149Z,97899.75
2022-11-17T20:41:33.380Z,97913.88
2022-11-17T20:44:01.698Z,97918.38
2022-11-17T20:46:29.196Z,97912.25
2022-11-17T20:48:56.205Z,97914.91
2022-11-17T20:51:24.877Z,97922.09
2022-11-17T20:53:52.034Z,97928.22
2022-11-17T20:56:19.625Z,97922.91
2022-11-17T20:58:46.702Z,97916.53
2022-11-17T21:01:20.138Z,97927.44
2022-11-17T21:03:47.954Z,97926.63
2022-11-17T21:06:16.291Z,97930.09
2022-11-17T21:08:44.858Z,97934.03
2022-11-17T21:11:39.901Z,97930.34
2022-11-17T21:14:09.901Z,97938.31
2022-11-17T21:16:39.637Z,97934.03
2022-11-17T21:19:08.104Z,97944.69
2022-11-17T21:21:35.610Z,97936.72
2022-11-17T21:24:03.269Z,97945.72
2022-11-17T21:26:30.678Z,97940.38
2022-11-17T21:29:03.190Z,97941.44
2022-11-17T21:31:34.016Z,97958.22
2022-11-17T21:34:05.087Z,97940.88
2022-11-17T21:36:33.903Z,97948.84
2022-11-17T21:39:01.100Z,97942.72
2022-11-17T21:41:31.103Z,97945.63
2022-11-17T21:44:00.564Z,97950.94
2022-11-17T21:46:31.376Z,97955.69
2022-11-17T21:49:00.502Z,97963.66
2022-11-17T21:51:33.115Z,97965.75
2022-11-17T21:54:03.189Z,97969.47
2022-11-17T21:56:31.855Z,97964.97
2022-11-17T21:59:10.970Z,97965.75
2022-11-17T22:01:39.388Z,97962.53
2022-11-17T22:04:06.427Z,97972.38
2022-11-17T22:06:33.442Z,97964.16
2022-11-17T22:09:00.416Z,97965.19
2022-11-17T22:11:36.573Z,97974.81
2022-11-17T22:14:19.357Z,97979.56
2022-11-17T22:16:54.954Z,97977.69
2022-11-17T22:19:24.537Z,97984.88
2022-11-17T22:21:53.741Z,97979.75
2022-11-17T22:24:22.952Z,97973.63
2022-11-17T22:26:51.427Z,97979.44
2022-11-17T22:29:21.997Z,97975.72
2022-11-17T22:31:49.805Z,97975.97
2022-11-17T22:34:18.158Z,97970.03
2022-11-17T22:36:45.280Z,97972.69
2022-11-17T22:39:12.291Z,97970.28
2022-11-17T22:41:40.309Z,97977.94
2022-11-17T22:44:07.402Z,97977.13
2022-11-17T22:46:36.031Z,97968.75
2022-11-17T22:49:03.260Z,97974.31
2022-11-17T22:51:48.509Z,97968.41
2022-11-17T22:54:15.520Z,97968.88
2022-11-17T22:56:42.821Z,97972.59
2022-11-17T22:59:09.887Z,97978.16
2022-11-17T23:01:37.115Z,97977.78
2022-11-17T23:04:04.320Z,97973.75
2022-11-17T23:06:31.274Z,97979.88
2022-11-17T23:08:58.610Z,97977.66
2022-11-17T23:11:41.899Z,97979.50
2022-11-17T23:14:14.538Z,97976.28
2022-11-17T23:16:42.084Z,97979.16
2022-11-17T23:19:13.705Z,97970.38
2022-11-17T23:21:41.285Z,97976.50
2022-11-17T23:24:12.835Z,97971.41
2022-11-17T23:26:40.569Z,97976.75
2022-11-17T23:29:09.101Z,97975.09
2022-11-17T23:31:36.085Z,97976.13
2022-11-17T23:34:03.121Z,97976.94
2022-11-17T23:36:30.230Z,97975.09
2022-11-17T23:38:57.727Z,97982.06
2022-11-17T23:41:24.713Z,97991.88
2022-11-17T23:43:53.931Z,97985.72
2022-11-17T23:46:23.913Z,97979.59
2022-11-17T23:48:51.234Z,97979.59
2022-11-17T23:51:21.354Z,97974.28
2022-11-17T23:53:49.347Z,97969.78
2022-11-17T23:56:18.841Z,97975.31
2022-11-17T23:58:46.162Z,97976.38
